createdAt,value
2018-09-03T00:00:22.050Z,2.40
2018-09-03T00:02:50.352Z,2.10
2018-09-03T00:05:18.689Z,2.13
2018-09-03T00:07:47.126Z,1.83
2018-09-03T00:10:15.548Z,2.47
2018-09-03T00:12:43.927Z,2.77
2018-09-03T00:15:12.348Z,2.63
2018-09-03T00:17:40.766Z,2.40
2018-09-03T00:20:09.363Z,2.40
2018-09-03T00:22:37.717Z,2.43
2018-09-03T00:25:07.197Z,2.10
2018-09-03T00:27:35.616Z,2.07
2018-09-03T00:30:04.007Z,2.60
2018-09-03T00:32:37.855Z,2.40
2018-09-03T00:35:12.073Z,2.40
2018-09-03T00:37:46.076Z,2.27
2018-09-03T00:40:20.036Z,2.17
2018-09-03T00:42:53.613Z,2.30
2018-09-03T00:45:27.391Z,2.43
2018-09-03T00:47:55.687Z,2.20
2018-09-03T00:50:24.015Z,2.30
2018-09-03T00:52:52.318Z,2.30
2018-09-03T00:55:20.688Z,2.20
2018-09-03T00:57:49.197Z,1.93
2018-09-03T01:00:17.523Z,2.40
2018-09-03T01:02:45.835Z,2.07
2018-09-03T01:05:14.188Z,2.43
2018-09-03T01:07:42.568Z,2.57
2018-09-03T01:10:10.929Z,2.03
2018-09-03T01:12:39.311Z,2.30
2018-09-03T01:15:07.771Z,2.70
2018-09-03T01:17:37.074Z,2.30
2018-09-03T01:20:05.461Z,2.47
2018-09-03T01:22:33.784Z,2.47
2018-09-03T01:25:02.180Z,2.50
2018-09-03T01:27:30.527Z,2.80
2018-09-03T01:29:59.039Z,2.40
2018-09-03T01:32:27.571Z,2.33
2018-09-03T01:34:55.883Z,2.60
2018-09-03T01:37:24.178Z,3.00
2018-09-03T01:39:52.578Z,2.60
2018-09-03T01:42:20.887Z,2.47
2018-09-03T01:44:49.203Z,2.50
2018-09-03T01:47:17.576Z,3.20
2018-09-03T01:49:45.863Z,2.80
2018-09-03T01:52:14.168Z,2.80
2018-09-03T01:54:42.450Z,3.00
2018-09-03T01:57:10.826Z,3.13
2018-09-03T01:59:39.325Z,3.10
2018-09-03T02:02:07.892Z,3.03
2018-09-03T02:04:36.278Z,2.90
2018-09-03T02:07:04.597Z,2.77
2018-09-03T02:09:32.980Z,2.87
2018-09-03T02:12:01.298Z,2.57
2018-09-03T02:14:29.603Z,3.10
2018-09-03T02:16:57.920Z,3.00
2018-09-03T02:19:26.231Z,3.00
2018-09-03T02:21:54.648Z,2.83
2018-09-03T02:24:23.073Z,3.40
2018-09-03T02:26:51.658Z,3.33
2018-09-03T02:29:19.960Z,2.57
2018-09-03T02:31:48.267Z,2.90
2018-09-03T02:34:16.633Z,3.30
2018-09-03T02:36:45.035Z,3.20
2018-09-03T02:39:14.234Z,3.23
2018-09-03T02:41:42.566Z,2.87
2018-09-03T02:44:10.903Z,2.87
2018-09-03T02:46:39.336Z,2.87
2018-09-03T02:49:07.758Z,3.20
2018-09-03T02:51:36.196Z,2.60
2018-09-03T02:54:04.519Z,3.60
2018-09-03T02:56:32.962Z,3.00
2018-09-03T02:59:01.279Z,3.00
2018-09-03T03:01:29.663Z,2.67
2018-09-03T03:10:57.434Z,3.30
2018-09-03T03:13:25.747Z,3.97
2018-09-03T03:15:54.127Z,3.40
2018-09-03T03:18:22.456Z,4.70
2018-09-03T03:20:50.791Z,4.20
2018-09-03T03:23:19.184Z,4.40
2018-09-03T03:25:47.522Z,4.90
2018-09-03T03:28:15.927Z,4.57
2018-09-03T03:30:44.248Z,4.73
2018-09-03T03:33:12.620Z,4.73
2018-09-03T03:35:41.116Z,4.77
2018-09-03T03:38:09.515Z,4.63
2018-09-03T03:40:38.332Z,4.60
2018-09-03T03:43:06.736Z,5.00
2018-09-03T03:45:35.076Z,5.23
2018-09-03T03:48:03.402Z,5.00
2018-09-03T03:50:32.002Z,4.73
2018-09-03T03:53:00.387Z,5.43
2018-09-03T03:55:28.747Z,5.10
2018-09-03T03:57:57.083Z,5.67
2018-09-03T04:00:25.388Z,4.50
2018-09-03T04:02:53.681Z,5.87
2018-09-03T04:05:22.062Z,4.93
2018-09-03T04:07:50.539Z,5.20
2018-09-03T04:10:19.051Z,4.83
2018-09-03T04:12:52.821Z,5.10
2018-09-03T04:15:21.180Z,5.87
2018-09-03T04:17:49.790Z,5.97
2018-09-03T04:20:18.076Z,5.50
2018-09-03T04:22:46.408Z,5.40
2018-09-03T04:25:14.780Z,5.70
2018-09-03T04:27:43.176Z,6.70
2018-09-03T04:30:11.805Z,5.73
2018-09-03T04:32:40.152Z,6.60
2018-09-03T04:35:08.535Z,5.97
2018-09-03T04:37:36.887Z,5.63
2018-09-03T04:40:06.038Z,5.80
2018-09-03T04:42:34.598Z,6.10
2018-09-03T04:45:02.956Z,5.33
2018-09-03T04:47:31.258Z,6.20
2018-09-03T04:49:59.622Z,5.13
2018-09-03T04:52:27.951Z,5.90
2018-09-03T04:54:56.531Z,6.57
2018-09-03T04:57:24.916Z,6.07
2018-09-03T04:59:53.234Z,6.33
2018-09-03T05:02:21.523Z,5.60
2018-09-03T05:04:49.958Z,6.17
2018-09-03T05:07:18.298Z,5.63
2018-09-03T05:09:46.887Z,6.20
2018-09-03T05:12:15.177Z,6.37
2018-09-03T05:14:43.474Z,7.17
2018-09-03T05:17:12.069Z,6.67
2018-09-03T05:19:40.444Z,5.90
2018-09-03T05:22:08.842Z,5.77
2018-09-03T05:24:37.220Z,6.43
2018-09-03T05:27:05.564Z,7.13
2018-09-03T05:29:33.939Z,7.10
2018-09-03T05:32:02.288Z,6.63
2018-09-03T05:34:30.619Z,7.10
2018-09-03T05:36:58.911Z,7.03
2018-09-03T05:39:27.372Z,9.90
2018-09-03T05:41:55.736Z,14.60
2018-09-03T05:44:24.064Z,17.03
2018-09-03T05:46:52.415Z,10.40
2018-09-03T05:49:20.775Z,12.50
2018-09-03T05:51:49.077Z,12.00
2018-09-03T05:54:17.385Z,13.67
2018-09-03T05:56:47.156Z,17.80
2018-09-03T05:59:15.669Z,22.77
2018-09-03T06:01:43.924Z,16.60
2018-09-03T06:04:12.731Z,12.03
2018-09-03T06:06:41.068Z,12.67
2018-09-03T06:09:11.203Z,16.17
2018-09-03T06:11:40.206Z,14.90
2018-09-03T06:14:08.913Z,16.33
2018-09-03T06:16:37.352Z,12.80
2018-09-03T06:19:05.734Z,11.10
2018-09-03T06:21:34.072Z,9.63
2018-09-03T06:24:02.611Z,8.77
2018-09-03T06:26:30.952Z,8.37
2018-09-03T06:28:59.342Z,8.17
2018-09-03T06:31:32.840Z,7.93
2018-09-03T06:34:07.983Z,8.00
2018-09-03T06:36:39.702Z,7.23
2018-09-03T06:39:08.926Z,8.07
2018-09-03T06:41:37.335Z,7.70
2018-09-03T06:44:05.726Z,7.97
2018-09-03T06:46:34.045Z,7.20
2018-09-03T06:49:02.463Z,7.57
2018-09-03T06:51:30.980Z,8.60
2018-09-03T06:53:59.357Z,8.33
2018-09-03T06:56:27.662Z,8.63
2018-09-03T06:58:55.995Z,7.40
2018-09-03T07:01:24.468Z,7.47
2018-09-03T07:03:52.804Z,7.27
2018-09-03T07:06:21.179Z,7.53
2018-09-03T07:08:49.470Z,9.60
2018-09-03T07:11:17.786Z,24.33
2018-09-03T07:13:46.141Z,22.80
2018-09-03T07:16:14.701Z,13.67
2018-09-03T07:18:43.054Z,14.17
2018-09-03T07:21:11.403Z,12.40
2018-09-03T07:23:40.298Z,10.90
2018-09-03T07:26:08.907Z,12.23
2018-09-03T07:28:37.328Z,13.60
2018-09-03T07:31:05.816Z,11.77
2018-09-03T07:33:35.115Z,9.73
2018-09-03T07:36:03.471Z,9.20
2018-09-03T07:38:32.067Z,7.80
2018-09-03T07:41:00.694Z,8.27
2018-09-03T07:43:29.455Z,8.10
2018-09-03T07:45:57.903Z,8.17
2018-09-03T07:48:26.216Z,8.80
2018-09-03T07:50:55.119Z,7.70
2018-09-03T07:53:23.516Z,7.03
2018-09-03T07:55:51.888Z,7.10
2018-09-03T07:58:20.197Z,7.10
2018-09-03T08:00:48.618Z,6.87
2018-09-03T08:03:17.015Z,6.90
2018-09-03T08:05:45.529Z,7.73
2018-09-03T08:08:13.976Z,6.97
2018-09-03T08:10:42.493Z,7.07
2018-09-03T08:13:15.305Z,6.60
2018-09-03T08:15:44.058Z,6.87
2018-09-03T08:18:12.498Z,6.43
2018-09-03T08:20:41.084Z,6.80
2018-09-03T08:23:09.443Z,7.67
2018-09-03T08:25:37.848Z,7.60
2018-09-03T08:28:06.910Z,7.37
2018-09-03T08:30:35.496Z,7.70
2018-09-03T08:33:04.142Z,7.57
2018-09-03T08:35:32.606Z,8.20
2018-09-03T08:38:01.132Z,6.73
2018-09-03T08:40:29.608Z,7.33
2018-09-03T08:42:58.185Z,7.77
2018-09-03T08:45:26.820Z,7.77
2018-09-03T08:47:55.300Z,7.27
2018-09-03T08:50:23.925Z,6.57
2018-09-03T08:52:52.421Z,7.03
2018-09-03T08:55:21.124Z,7.20
2018-09-03T08:57:49.483Z,7.30
2018-09-03T09:00:18.071Z,7.97
2018-09-03T09:02:46.486Z,6.63
2018-09-03T09:05:15.464Z,7.97
2018-09-03T09:07:43.938Z,7.30
2018-09-03T09:10:12.516Z,7.23
2018-09-03T09:12:41.224Z,6.43
2018-09-03T09:15:09.773Z,7.60
2018-09-03T09:17:38.655Z,7.43
2018-09-03T09:20:07.140Z,7.60
2018-09-03T09:22:35.616Z,7.40
2018-09-03T09:25:04.299Z,8.23
2018-09-03T09:27:32.670Z,8.60
2018-09-03T09:30:01.050Z,7.70
2018-09-03T09:32:29.388Z,8.10
2018-09-03T09:34:58.013Z,6.53
2018-09-03T09:37:26.315Z,6.27
2018-09-03T09:39:55.203Z,7.60
2018-09-03T09:42:23.544Z,7.10
2018-09-03T09:44:52.277Z,6.30
2018-09-03T09:47:20.868Z,6.47
2018-09-03T09:49:49.247Z,6.92
2018-09-03T09:52:17.905Z,5.67
2018-09-03T09:54:46.424Z,5.58
2018-09-03T09:57:14.788Z,5.67
2018-09-03T09:59:43.113Z,6.03
2018-09-03T10:02:11.900Z,5.43
2018-09-03T10:04:40.571Z,5.67
2018-09-03T10:07:09.591Z,5.70
2018-09-03T10:09:39.391Z,4.92
2018-09-03T10:12:09.006Z,5.57
2018-09-03T10:14:39.095Z,6.87
2018-09-03T10:17:07.827Z,8.90
2018-09-03T10:19:37.118Z,9.07
2018-09-03T10:22:08.034Z,10.23
2018-09-03T10:24:40.869Z,9.60
2018-09-03T10:27:10.312Z,9.17
2018-09-03T10:29:41.131Z,8.23
2018-09-03T10:32:13.583Z,8.37
2018-09-03T10:34:43.700Z,9.17
2018-09-03T10:37:13.982Z,8.40
2018-09-03T10:39:43.229Z,8.07
2018-09-03T10:42:14.233Z,9.73
2018-09-03T10:44:42.843Z,10.33
2018-09-03T10:47:12.283Z,10.77
2018-09-03T10:49:43.379Z,10.40
2018-09-03T10:52:15.932Z,9.40
2018-09-03T10:54:45.526Z,11.25
2018-09-03T10:57:15.948Z,11.05
2018-09-03T10:59:44.630Z,9.80
2018-09-03T11:02:13.179Z,9.50
2018-09-03T11:04:41.734Z,9.35
2018-09-03T11:07:10.260Z,9.38
2018-09-03T11:09:38.786Z,9.33
2018-09-03T11:12:07.976Z,9.40
2018-09-03T11:14:36.295Z,9.33
2018-09-03T11:17:04.696Z,9.90
2018-09-03T11:19:35.841Z,10.13
2018-09-03T11:22:04.159Z,8.97
2018-09-03T11:24:32.473Z,8.73
2018-09-03T11:27:01.035Z,8.83
2018-09-03T11:29:29.330Z,9.07
2018-09-03T11:31:57.671Z,8.90
2018-09-03T11:34:26.093Z,10.17
2018-09-03T11:36:54.405Z,10.27
2018-09-03T11:39:22.858Z,11.03
2018-09-03T11:41:51.182Z,11.50
2018-09-03T11:44:19.520Z,10.90
2018-09-03T11:46:47.820Z,11.10
2018-09-03T11:49:16.156Z,10.97
2018-09-03T11:51:44.605Z,11.53
2018-09-03T11:54:13.083Z,12.43
2018-09-03T11:56:41.424Z,11.67
2018-09-03T11:59:10.086Z,12.20
2018-09-03T12:01:38.631Z,12.27
2018-09-03T12:04:07.286Z,12.73
2018-09-03T12:06:35.720Z,12.97
2018-09-03T12:09:05.225Z,11.40
2018-09-03T12:11:33.566Z,12.30
2018-09-03T12:14:03.772Z,11.80
2018-09-03T12:16:32.102Z,12.53
2018-09-03T12:19:00.418Z,12.63
2018-09-03T12:21:28.799Z,11.73
2018-09-03T12:23:57.220Z,12.40
2018-09-03T12:26:25.532Z,13.43
2018-09-03T12:28:53.811Z,12.63
2018-09-03T12:31:22.210Z,14.13
2018-09-03T12:33:50.475Z,14.00
2018-09-03T12:36:18.851Z,12.60
2018-09-03T12:38:47.158Z,12.60
2018-09-03T12:41:15.492Z,12.43
2018-09-03T12:43:44.141Z,13.40
2018-09-03T12:46:12.543Z,14.13
2018-09-03T12:48:40.845Z,15.37
2018-09-03T12:51:09.299Z,20.00
2018-09-03T12:53:37.604Z,19.97
2018-09-03T12:56:05.999Z,18.37
2018-09-03T12:58:34.647Z,19.37
2018-09-03T13:01:03.044Z,19.93
2018-09-03T13:03:31.348Z,14.73
2018-09-03T13:05:59.634Z,13.93
2018-09-03T13:08:28.107Z,12.77
2018-09-03T13:10:56.408Z,11.37
2018-09-03T13:13:24.725Z,11.43
2018-09-03T13:15:53.007Z,10.50
2018-09-03T13:18:21.389Z,11.73
2018-09-03T13:20:49.667Z,11.80
2018-09-03T13:23:17.978Z,12.17
2018-09-03T13:25:47.726Z,10.40
2018-09-03T13:28:22.432Z,11.60
2018-09-03T13:30:54.347Z,11.53
2018-09-03T13:33:25.033Z,10.93
2018-09-03T13:35:56.612Z,10.23
2018-09-03T13:38:31.535Z,11.33
2018-09-03T13:41:03.941Z,11.73
2018-09-03T13:43:37.358Z,11.27
2018-09-03T13:46:05.996Z,11.17
2018-09-03T13:48:35.648Z,11.80
2018-09-03T13:51:04.184Z,11.47
2018-09-03T13:53:32.573Z,10.93
2018-09-03T13:56:00.915Z,12.30
2018-09-03T13:58:29.304Z,12.17
2018-09-03T14:00:57.682Z,11.23
2018-09-03T14:03:26.374Z,12.00
2018-09-03T14:05:55.176Z,12.30
2018-09-03T14:08:23.770Z,11.30
2018-09-03T14:10:52.112Z,10.63
2018-09-03T14:13:20.413Z,9.80
2018-09-03T14:15:48.772Z,12.03
2018-09-03T14:18:17.139Z,11.03
2018-09-03T14:20:45.483Z,10.23
2018-09-03T14:23:13.873Z,10.40
2018-09-03T14:25:42.504Z,11.57
2018-09-03T14:28:11.444Z,11.57
2018-09-03T14:30:39.858Z,12.07
2018-09-03T14:33:08.503Z,11.87
2018-09-03T14:35:37.374Z,10.80
2018-09-03T14:38:05.841Z,11.00
2018-09-03T14:40:34.168Z,11.17
2018-09-03T14:43:02.745Z,10.73
2018-09-03T14:45:31.255Z,10.60
2018-09-03T14:47:59.746Z,10.13
2018-09-03T14:50:28.359Z,10.67
2018-09-03T14:52:56.815Z,10.47
2018-09-03T14:55:25.135Z,10.20
2018-09-03T14:57:53.471Z,10.67
2018-09-03T15:00:21.870Z,10.73
2018-09-03T15:02:50.157Z,9.33
2018-09-03T15:05:18.551Z,9.73
2018-09-03T15:07:47.267Z,9.50
2018-09-03T15:10:15.677Z,9.93
2018-09-03T15:12:44.078Z,10.13
2018-09-03T15:15:12.421Z,9.60
2018-09-03T15:17:40.781Z,9.87
2018-09-03T15:20:09.092Z,10.07
2018-09-03T15:22:40.738Z,10.17
2018-09-03T15:25:09.075Z,9.70
2018-09-03T15:27:37.480Z,9.50
2018-09-03T15:30:06.265Z,9.50
2018-09-03T15:32:34.595Z,8.90
2018-09-03T15:35:02.871Z,8.83
2018-09-03T15:37:31.235Z,8.57
2018-09-03T15:39:59.567Z,8.93
2018-09-03T15:42:27.887Z,8.67
2018-09-03T15:44:56.223Z,8.10
2018-09-03T15:47:24.523Z,8.20
2018-09-03T15:49:53.416Z,7.30
2018-09-03T15:52:21.897Z,8.20
2018-09-03T15:54:50.251Z,8.43
2018-09-03T15:57:19.290Z,7.83
2018-09-03T15:59:47.604Z,8.10
2018-09-03T16:02:15.993Z,8.00
2018-09-03T16:04:44.387Z,9.93
2018-09-03T16:07:12.724Z,9.40
2018-09-03T16:09:41.076Z,8.80
2018-09-03T16:12:09.383Z,9.20
2018-09-03T16:14:37.700Z,9.03
2018-09-03T16:17:06.039Z,8.47
2018-09-03T16:19:34.315Z,8.43
2018-09-03T16:22:02.659Z,8.50
2018-09-03T16:24:31.049Z,7.83
2018-09-03T16:26:59.765Z,9.83
2018-09-03T16:29:28.074Z,8.70
2018-09-03T16:31:56.595Z,9.00
2018-09-03T16:34:24.913Z,9.10
2018-09-03T16:36:53.400Z,9.23
2018-09-03T16:39:21.760Z,10.30
2018-09-03T16:41:50.302Z,10.30
2018-09-03T16:44:18.788Z,9.03
2018-09-03T16:46:47.130Z,9.53
2018-09-03T16:49:15.551Z,10.47
2018-09-03T16:51:44.624Z,10.17
2018-09-03T16:54:13.156Z,11.17
2018-09-03T16:56:41.516Z,10.40
2018-09-03T16:59:09.824Z,10.67
2018-09-03T17:01:38.162Z,10.47
2018-09-03T17:04:06.921Z,10.17
2018-09-03T17:06:35.287Z,10.27
2018-09-03T17:09:04.468Z,10.53
2018-09-03T17:11:32.788Z,10.53
2018-09-03T17:14:01.132Z,10.47
2018-09-03T17:16:29.628Z,11.40
2018-09-03T17:18:58.024Z,11.20
2018-09-03T17:21:26.355Z,10.37
2018-09-03T17:23:54.915Z,10.30
2018-09-03T17:26:23.228Z,11.10
2018-09-03T17:28:51.688Z,11.10
2018-09-03T17:31:20.080Z,10.83
2018-09-03T17:33:48.423Z,10.60
2018-09-03T17:36:16.724Z,11.07
2018-09-03T17:38:45.148Z,11.30
2018-09-03T17:41:13.553Z,11.30
2018-09-03T17:43:41.944Z,10.83
2018-09-03T17:46:10.340Z,10.90
2018-09-03T17:48:38.716Z,10.67
2018-09-03T17:51:07.051Z,10.63
2018-09-03T17:53:35.422Z,10.37
2018-09-03T17:56:03.910Z,10.53
2018-09-03T17:58:32.361Z,10.47
2018-09-03T18:01:01.120Z,10.30
2018-09-03T18:03:29.500Z,10.40
2018-09-03T18:05:57.837Z,11.43
2018-09-03T18:08:26.915Z,10.63
2018-09-03T18:10:55.163Z,11.03
2018-09-03T18:13:23.932Z,9.57
2018-09-03T18:15:52.265Z,11.50
2018-09-03T18:18:20.688Z,10.70
2018-09-03T18:20:49.326Z,10.40
2018-09-03T18:23:17.596Z,11.80
2018-09-03T18:25:46.165Z,11.13
2018-09-03T18:28:14.725Z,11.43
2018-09-03T18:30:43.044Z,10.53
2018-09-03T18:33:11.583Z,9.50
2018-09-03T18:35:40.155Z,10.50
2018-09-03T18:38:08.505Z,9.87
2018-09-03T18:40:36.850Z,10.00
2018-09-03T18:43:05.173Z,10.90
2018-09-03T18:45:33.463Z,10.83
2018-09-03T18:48:01.773Z,11.17
2018-09-03T18:50:30.117Z,10.67
2018-09-03T18:52:58.468Z,10.40
2018-09-03T18:55:26.795Z,10.83
2018-09-03T18:57:55.143Z,10.60
2018-09-03T19:00:23.662Z,10.43
2018-09-03T19:02:52.091Z,10.43
2018-09-03T19:05:20.697Z,10.80
2018-09-03T19:07:49.030Z,10.30
2018-09-03T19:10:17.553Z,10.63
2018-09-03T19:12:45.875Z,10.17
2018-09-03T19:15:14.241Z,10.63
2018-09-03T19:17:42.515Z,10.70
2018-09-03T19:20:10.834Z,10.90
2018-09-03T19:22:39.178Z,9.37
2018-09-03T19:25:07.531Z,10.50
2018-09-03T19:27:35.916Z,10.40
2018-09-03T19:30:04.567Z,10.33
2018-09-03T19:32:32.867Z,9.80
2018-09-03T19:35:01.156Z,10.10
2018-09-03T19:37:29.486Z,9.40
2018-09-03T19:39:57.837Z,9.67
2018-09-03T19:42:26.128Z,9.87
2018-09-03T19:44:54.439Z,10.93
2018-09-03T19:47:23.890Z,9.97
2018-09-03T19:49:52.415Z,10.23
2018-09-03T19:52:20.710Z,10.17
2018-09-03T19:54:49.075Z,9.73
2018-09-03T19:57:17.397Z,9.63
2018-09-03T19:59:45.908Z,9.53
2018-09-03T20:02:14.413Z,10.50
2018-09-03T20:04:42.715Z,10.60
2018-09-03T20:07:11.067Z,10.30
2018-09-03T20:09:39.516Z,9.87
2018-09-03T20:12:07.955Z,10.37
2018-09-03T20:14:36.516Z,10.33
2018-09-03T20:17:05.071Z,10.47
2018-09-03T20:19:33.334Z,9.57
2018-09-03T20:22:01.708Z,10.40
2018-09-03T20:24:30.247Z,10.13
2018-09-03T20:26:58.719Z,10.37
2018-09-03T20:29:27.011Z,9.93
2018-09-03T20:31:55.344Z,10.17
2018-09-03T20:34:23.653Z,10.50
2018-09-03T20:36:52.087Z,10.53
2018-09-03T20:39:20.503Z,9.90
2018-09-03T20:41:48.821Z,10.37
2018-09-03T20:44:17.195Z,10.03
2018-09-03T20:46:45.495Z,10.93
2018-09-03T20:49:13.814Z,10.80
2018-09-03T20:51:42.226Z,9.77
2018-09-03T20:54:10.527Z,9.97
2018-09-03T20:56:39.117Z,10.30
2018-09-03T20:59:07.522Z,10.70
2018-09-03T21:01:35.994Z,11.23
2018-09-03T21:04:04.346Z,10.60
2018-09-03T21:06:32.717Z,10.50
2018-09-03T21:09:01.023Z,11.20
2018-09-03T21:11:29.360Z,10.57
2018-09-03T21:13:57.696Z,10.80
2018-09-03T21:16:25.970Z,10.63
2018-09-03T21:18:54.268Z,10.73
2018-09-03T21:21:22.614Z,9.43
2018-09-03T21:23:51.105Z,9.87
2018-09-03T21:26:19.549Z,9.67
2018-09-03T21:28:47.900Z,9.57
2018-09-03T21:31:16.293Z,10.13
2018-09-03T21:33:44.639Z,10.53
2018-09-03T21:36:13.003Z,10.43
2018-09-03T21:38:41.408Z,10.67
2018-09-03T21:41:10.206Z,9.80
2018-09-03T21:43:38.514Z,9.23
2018-09-03T21:46:07.275Z,9.27
2018-09-03T21:48:35.712Z,9.13
2018-09-03T21:51:04.115Z,8.93
2018-09-03T21:53:32.435Z,8.50
2018-09-03T21:56:01.216Z,9.27
2018-09-03T21:58:29.544Z,8.97
2018-09-03T22:00:57.895Z,8.77
2018-09-03T22:03:26.584Z,9.67
2018-09-03T22:05:54.873Z,8.40
2018-09-03T22:08:23.307Z,9.07
2018-09-03T22:10:51.735Z,9.33
2018-09-03T22:13:20.164Z,8.50
2018-09-03T22:15:48.536Z,8.50
2018-09-03T22:18:16.976Z,8.27
2018-09-03T22:20:45.295Z,9.20
2018-09-03T22:23:13.725Z,9.03
2018-09-03T22:25:42.163Z,9.47
2018-09-03T22:28:10.468Z,10.73
2018-09-03T22:30:38.792Z,11.40
2018-09-03T22:33:07.140Z,11.77
2018-09-03T22:35:35.498Z,12.50
2018-09-03T22:38:03.895Z,11.27
2018-09-03T22:40:32.233Z,12.63
2018-09-03T22:43:00.532Z,12.50
2018-09-03T22:45:28.840Z,11.60
2018-09-03T22:47:57.205Z,10.67
2018-09-03T22:50:25.479Z,11.07
2018-09-03T22:52:53.823Z,10.57
2018-09-03T22:55:22.159Z,10.33
2018-09-03T22:57:50.563Z,11.50
2018-09-03T23:00:18.927Z,12.23
2018-09-03T23:02:47.980Z,12.37
2018-09-03T23:05:16.396Z,12.53
2018-09-03T23:07:44.722Z,12.70
2018-09-03T23:10:13.023Z,14.33
2018-09-03T23:12:41.376Z,12.53
2018-09-03T23:15:10.075Z,13.30
2018-09-03T23:17:38.462Z,13.70
2018-09-03T23:20:06.884Z,12.10
2018-09-03T23:22:35.359Z,12.63
2018-09-03T23:25:03.823Z,12.03
2018-09-03T23:27:32.244Z,13.30
2018-09-03T23:30:00.623Z,14.13
2018-09-03T23:32:28.966Z,17.80
2018-09-03T23:34:57.245Z,19.77
2018-09-03T23:37:25.739Z,17.53
2018-09-03T23:39:54.297Z,19.43
2018-09-03T23:42:22.616Z,19.03
2018-09-03T23:44:50.909Z,19.50
2018-09-03T23:47:19.274Z,19.00
2018-09-03T23:49:47.746Z,18.93
2018-09-03T23:52:16.654Z,19.47
2018-09-03T23:54:45.221Z,20.13
2018-09-03T23:57:13.538Z,17.83
2018-09-03T23:59:41.880Z,18.57
